sensor_id;sensor_type;location;lat;lon;timestamp;temperature;humidity
77693;SHT31;66984;47.404;18.836;2023-01-24T00:00:42;7.52;75.77
77693;SHT31;66984;47.404;18.836;2023-01-24T00:01:45;7.52;75.86
77693;SHT31;66984;47.404;18.836;2023-01-24T00:02:48;7.51;75.87
77693;SHT31;66984;47.404;18.836;2023-01-24T00:03:53;7.48;75.92
77693;SHT31;66984;47.404;18.836;2023-01-24T00:04:56;7.47;75.89
77693;SHT31;66984;47.404;18.836;2023-01-24T00:05:59;7.48;75.85
77693;SHT31;66984;47.404;18.836;2023-01-24T00:07:01;7.47;75.91
77693;SHT31;66984;47.404;18.836;2023-01-24T00:08:06;7.46;75.87
77693;SHT31;66984;47.404;18.836;2023-01-24T00:09:09;7.48;75.65
77693;SHT31;66984;47.404;18.836;2023-01-24T00:10:12;7.48;75.41
77693;SHT31;66984;47.404;18.836;2023-01-24T00:11:14;7.50;75.42
77693;SHT31;66984;47.404;18.836;2023-01-24T00:12:17;7.48;75.57
77693;SHT31;66984;47.404;18.836;2023-01-24T00:13:20;7.48;75.61
77693;SHT31;66984;47.404;18.836;2023-01-24T00:14:23;7.47;75.59
77693;SHT31;66984;47.404;18.836;2023-01-24T00:15:26;7.48;75.47
77693;SHT31;66984;47.404;18.836;2023-01-24T00:16:28;7.47;75.41
77693;SHT31;66984;47.404;18.836;2023-01-24T00:17:31;7.48;75.33
77693;SHT31;66984;47.404;18.836;2023-01-24T00:18:36;7.46;75.30
77693;SHT31;66984;47.404;18.836;2023-01-24T00:19:39;7.48;75.12
77693;SHT31;66984;47.404;18.836;2023-01-24T00:20:41;7.46;75.00
77693;SHT31;66984;47.404;18.836;2023-01-24T00:21:44;7.46;75.02
77693;SHT31;66984;47.404;18.836;2023-01-24T00:22:49;7.47;75.04
77693;SHT31;66984;47.404;18.836;2023-01-24T00:23:53;7.48;75.09
77693;SHT31;66984;47.404;18.836;2023-01-24T00:24:56;7.48;75.03
77693;SHT31;66984;47.404;18.836;2023-01-24T00:26:03;7.46;74.97
77693;SHT31;66984;47.404;18.836;2023-01-24T00:27:06;7.43;74.95
77693;SHT31;66984;47.404;18.836;2023-01-24T00:28:09;7.46;75.08
77693;SHT31;66984;47.404;18.836;2023-01-24T00:29:12;7.44;74.94
77693;SHT31;66984;47.404;18.836;2023-01-24T00:30:15;7.41;74.87
77693;SHT31;66984;47.404;18.836;2023-01-24T00:31:21;7.41;75.02
77693;SHT31;66984;47.404;18.836;2023-01-24T00:32:24;7.40;75.03
77693;SHT31;66984;47.404;18.836;2023-01-24T00:33:28;7.40;75.00
77693;SHT31;66984;47.404;18.836;2023-01-24T00:34:31;7.40;75.10
77693;SHT31;66984;47.404;18.836;2023-01-24T00:35:33;7.40;74.96
77693;SHT31;66984;47.404;18.836;2023-01-24T00:36:36;7.37;74.89
77693;SHT31;66984;47.404;18.836;2023-01-24T00:37:39;7.37;74.94
77693;SHT31;66984;47.404;18.836;2023-01-24T00:38:41;7.38;74.81
77693;SHT31;66984;47.404;18.836;2023-01-24T00:39:44;7.33;74.94
77693;SHT31;66984;47.404;18.836;2023-01-24T00:40:49;7.31;74.92
77693;SHT31;66984;47.404;18.836;2023-01-24T00:41:52;7.30;74.86
77693;SHT31;66984;47.404;18.836;2023-01-24T00:42:55;7.28;74.90
77693;SHT31;66984;47.404;18.836;2023-01-24T00:43:58;7.27;75.00
77693;SHT31;66984;47.404;18.836;2023-01-24T00:45:00;7.26;75.03
77693;SHT31;66984;47.404;18.836;2023-01-24T00:46:08;7.28;75.09
77693;SHT31;66984;47.404;18.836;2023-01-24T00:47:11;7.26;75.09
77693;SHT31;66984;47.404;18.836;2023-01-24T00:48:14;7.21;74.96
77693;SHT31;66984;47.404;18.836;2023-01-24T00:49:17;7.26;75.01
77693;SHT31;66984;47.404;18.836;2023-01-24T00:50:20;7.27;74.80
77693;SHT31;66984;47.404;18.836;2023-01-24T00:51:23;7.28;74.71
77693;SHT31;66984;47.404;18.836;2023-01-24T00:52:27;7.26;74.76
77693;SHT31;66984;47.404;18.836;2023-01-24T00:53:30;7.26;74.73
77693;SHT31;66984;47.404;18.836;2023-01-24T00:54:32;7.21;74.84
77693;SHT31;66984;47.404;18.836;2023-01-24T00:55:45;7.12;73.62
77693;SHT31;66984;47.404;18.836;2023-01-24T00:56:48;7.03;73.35
77693;SHT31;66984;47.404;18.836;2023-01-24T00:57:53;7.04;73.50
77693;SHT31;66984;47.404;18.836;2023-01-24T00:58:55;7.04;73.70
77693;SHT31;66984;47.404;18.836;2023-01-24T00:59:58;7.02;73.57
77693;SHT31;66984;47.404;18.836;2023-01-24T01:01:01;7.03;73.38
77693;SHT31;66984;47.404;18.836;2023-01-24T01:02:06;7.02;73.42
77693;SHT31;66984;47.404;18.836;2023-01-24T01:03:15;6.97;73.24
77693;SHT31;66984;47.404;18.836;2023-01-24T01:04:19;6.99;73.06
77693;SHT31;66984;47.404;18.836;2023-01-24T01:05:22;7.00;73.05
77693;SHT31;66984;47.404;18.836;2023-01-24T01:06:25;6.99;72.49
77693;SHT31;66984;47.404;18.836;2023-01-24T01:07:27;6.95;72.47
77693;SHT31;66984;47.404;18.836;2023-01-24T01:08:30;6.96;72.65
77693;SHT31;66984;47.404;18.836;2023-01-24T01:09:33;6.97;72.68
77693;SHT31;66984;47.404;18.836;2023-01-24T01:10:36;6.99;72.79
77693;SHT31;66984;47.404;18.836;2023-01-24T01:11:39;7.00;72.64
77693;SHT31;66984;47.404;18.836;2023-01-24T01:12:43;7.02;72.57
77693;SHT31;66984;47.404;18.836;2023-01-24T01:13:46;7.00;72.28
77693;SHT31;66984;47.404;18.836;2023-01-24T01:14:52;7.02;72.30
77693;SHT31;66984;47.404;18.836;2023-01-24T01:16:07;7.04;72.10
77693;SHT31;66984;47.404;18.836;2023-01-24T01:17:10;6.97;72.01
77693;SHT31;66984;47.404;18.836;2023-01-24T01:18:13;6.97;71.89
77693;SHT31;66984;47.404;18.836;2023-01-24T01:19:16;6.99;72.12
77693;SHT31;66984;47.404;18.836;2023-01-24T01:20:19;6.91;71.88
77693;SHT31;66984;47.404;18.836;2023-01-24T01:21:22;6.91;72.24
77693;SHT31;66984;47.404;18.836;2023-01-24T01:22:25;6.92;72.34
77693;SHT31;66984;47.404;18.836;2023-01-24T01:23:30;6.91;72.25
77693;SHT31;66984;47.404;18.836;2023-01-24T01:24:33;6.93;71.95
77693;SHT31;66984;47.404;18.836;2023-01-24T01:25:38;6.91;71.91
77693;SHT31;66984;47.404;18.836;2023-01-24T01:26:40;6.93;71.90
77693;SHT31;66984;47.404;18.836;2023-01-24T01:27:43;6.93;71.93
77693;SHT31;66984;47.404;18.836;2023-01-24T01:28:46;6.99;71.98
77693;SHT31;66984;47.404;18.836;2023-01-24T01:29:49;6.99;71.95
77693;SHT31;66984;47.404;18.836;2023-01-24T01:30:52;6.96;71.87
77693;SHT31;66984;47.404;18.836;2023-01-24T01:31:55;7.04;71.71
77693;SHT31;66984;47.404;18.836;2023-01-24T01:32:58;7.06;71.72
77693;SHT31;66984;47.404;18.836;2023-01-24T01:34:01;7.02;71.65
77693;SHT31;66984;47.404;18.836;2023-01-24T01:35:04;7.04;71.48
77693;SHT31;66984;47.404;18.836;2023-01-24T01:36:07;7.04;71.46
77693;SHT31;66984;47.404;18.836;2023-01-24T01:37:09;7.06;71.49
77693;SHT31;66984;47.404;18.836;2023-01-24T01:38:12;7.09;71.54
77693;SHT31;66984;47.404;18.836;2023-01-24T01:39:15;7.12;71.20
77693;SHT31;66984;47.404;18.836;2023-01-24T01:40:18;7.12;71.13
77693;SHT31;66984;47.404;18.836;2023-01-24T01:41:20;7.06;71.25
77693;SHT31;66984;47.404;18.836;2023-01-24T01:42:23;7.03;71.27
77693;SHT31;66984;47.404;18.836;2023-01-24T01:43:28;7.03;71.05
77693;SHT31;66984;47.404;18.836;2023-01-24T01:44:34;7.03;71.21
77693;SHT31;66984;47.404;18.836;2023-01-24T01:45:47;7.06;71.20
77693;SHT31;66984;47.404;18.836;2023-01-24T01:46:51;7.00;71.42
77693;SHT31;66984;47.404;18.836;2023-01-24T01:47:55;6.97;71.44
77693;SHT31;66984;47.404;18.836;2023-01-24T01:49:02;7.03;71.60
77693;SHT31;66984;47.404;18.836;2023-01-24T01:50:19;7.00;71.42
77693;SHT31;66984;47.404;18.836;2023-01-24T01:51:33;7.04;71.36
77693;SHT31;66984;47.404;18.836;2023-01-24T01:52:41;7.10;71.34
77693;SHT31;66984;47.404;18.836;2023-01-24T01:53:56;7.16;71.10
77693;SHT31;66984;47.404;18.836;2023-01-24T01:55:03;7.13;70.81
77693;SHT31;66984;47.404;18.836;2023-01-24T01:56:20;7.17;70.58
77693;SHT31;66984;47.404;18.836;2023-01-24T01:57:28;7.17;70.62
77693;SHT31;66984;47.404;18.836;2023-01-24T01:58:32;7.20;70.40
77693;SHT31;66984;47.404;18.836;2023-01-24T01:59:39;7.21;70.36
77693;SHT31;66984;47.404;18.836;2023-01-24T02:00:42;7.16;70.18
77693;SHT31;66984;47.404;18.836;2023-01-24T02:01:53;7.24;70.25
77693;SHT31;66984;47.404;18.836;2023-01-24T02:03:11;7.24;69.97
77693;SHT31;66984;47.404;18.836;2023-01-24T02:04:41;7.23;70.18
77693;SHT31;66984;47.404;18.836;2023-01-24T02:05:47;7.23;70.07
77693;SHT31;66984;47.404;18.836;2023-01-24T02:07:06;7.23;70.10
77693;SHT31;66984;47.404;18.836;2023-01-24T02:08:12;7.24;70.19
77693;SHT31;66984;47.404;18.836;2023-01-24T02:09:21;7.26;69.71
77693;SHT31;66984;47.404;18.836;2023-01-24T02:10:26;7.23;69.56
77693;SHT31;66984;47.404;18.836;2023-01-24T02:11:52;7.21;69.67
77693;SHT31;66984;47.404;18.836;2023-01-24T02:12:55;7.24;69.86
77693;SHT31;66984;47.404;18.836;2023-01-24T02:13:59;7.20;69.78
77693;SHT31;66984;47.404;18.836;2023-01-24T02:15:22;7.07;69.85
77693;SHT31;66984;47.404;18.836;2023-01-24T02:16:44;7.04;70.06
77693;SHT31;66984;47.404;18.836;2023-01-24T02:17:48;7.07;70.08
77693;SHT31;66984;47.404;18.836;2023-01-24T02:18:50;7.07;70.02
77693;SHT31;66984;47.404;18.836;2023-01-24T02:21:10;7.00;70.21
77693;SHT31;66984;47.404;18.836;2023-01-24T02:24:25;7.06;69.99
77693;SHT31;66984;47.404;18.836;2023-01-24T02:26:33;7.06;69.72
77693;SHT31;66984;47.404;18.836;2023-01-24T02:27:36;7.10;70.05
77693;SHT31;66984;47.404;18.836;2023-01-24T02:28:49;7.09;69.75
77693;SHT31;66984;47.404;18.836;2023-01-24T02:29:54;7.12;69.84
77693;SHT31;66984;47.404;18.836;2023-01-24T02:30:59;7.13;69.81
77693;SHT31;66984;47.404;18.836;2023-01-24T02:32:06;7.06;69.53
77693;SHT31;66984;47.404;18.836;2023-01-24T02:33:14;7.04;69.84
77693;SHT31;66984;47.404;18.836;2023-01-24T02:34:17;7.06;69.76
77693;SHT31;66984;47.404;18.836;2023-01-24T02:35:28;7.07;69.87
77693;SHT31;66984;47.404;18.836;2023-01-24T02:36:34;7.13;69.93
77693;SHT31;66984;47.404;18.836;2023-01-24T02:37:39;7.12;69.55
77693;SHT31;66984;47.404;18.836;2023-01-24T02:38:45;7.14;69.51
77693;SHT31;66984;47.404;18.836;2023-01-24T02:40:03;7.07;69.72
77693;SHT31;66984;47.404;18.836;2023-01-24T02:41:07;7.16;69.75
77693;SHT31;66984;47.404;18.836;2023-01-24T02:42:15;7.14;69.66
77693;SHT31;66984;47.404;18.836;2023-01-24T02:43:21;7.16;69.73
77693;SHT31;66984;47.404;18.836;2023-01-24T02:45:51;7.17;69.40
77693;SHT31;66984;47.404;18.836;2023-01-24T02:46:56;7.16;69.48
77693;SHT31;66984;47.404;18.836;2023-01-24T02:47:58;7.24;69.41
77693;SHT31;66984;47.404;18.836;2023-01-24T02:49:01;7.20;69.48
77693;SHT31;66984;47.404;18.836;2023-01-24T02:50:05;7.20;69.46
77693;SHT31;66984;47.404;18.836;2023-01-24T02:51:09;7.17;69.34
77693;SHT31;66984;47.404;18.836;2023-01-24T02:52:33;7.17;69.46
77693;SHT31;66984;47.404;18.836;2023-01-24T02:53:54;7.19;69.48
77693;SHT31;66984;47.404;18.836;2023-01-24T02:54:56;7.19;69.50
77693;SHT31;66984;47.404;18.836;2023-01-24T02:56:03;7.17;69.64
77693;SHT31;66984;47.404;18.836;2023-01-24T02:57:25;7.17;69.50
77693;SHT31;66984;47.404;18.836;2023-01-24T02:58:47;7.16;69.65
77693;SHT31;66984;47.404;18.836;2023-01-24T02:59:49;7.12;69.49
77693;SHT31;66984;47.404;18.836;2023-01-24T03:00:52;7.14;69.56
77693;SHT31;66984;47.404;18.836;2023-01-24T03:01:55;7.16;69.60
77693;SHT31;66984;47.404;18.836;2023-01-24T03:03:00;7.17;69.61
77693;SHT31;66984;47.404;18.836;2023-01-24T03:04:02;7.21;69.56
77693;SHT31;66984;47.404;18.836;2023-01-24T03:05:05;7.28;69.89
77693;SHT31;66984;47.404;18.836;2023-01-24T03:06:09;7.26;70.14
77693;SHT31;66984;47.404;18.836;2023-01-24T03:07:12;7.27;69.59
77693;SHT31;66984;47.404;18.836;2023-01-24T03:08:18;7.23;68.94
77693;SHT31;66984;47.404;18.836;2023-01-24T03:09:21;7.24;68.97
77693;SHT31;66984;47.404;18.836;2023-01-24T03:10:36;7.26;69.11
77693;SHT31;66984;47.404;18.836;2023-01-24T03:11:38;7.27;69.12
77693;SHT31;66984;47.404;18.836;2023-01-24T03:12:43;7.28;69.18
77693;SHT31;66984;47.404;18.836;2023-01-24T03:14:04;7.30;69.10
77693;SHT31;66984;47.404;18.836;2023-01-24T03:15:27;7.28;68.90
77693;SHT31;66984;47.404;18.836;2023-01-24T03:16:48;7.33;69.01
77693;SHT31;66984;47.404;18.836;2023-01-24T03:18:09;7.34;69.12
77693;SHT31;66984;47.404;18.836;2023-01-24T03:19:31;7.30;68.91
77693;SHT31;66984;47.404;18.836;2023-01-24T03:20:52;7.34;68.82
77693;SHT31;66984;47.404;18.836;2023-01-24T03:22:13;7.34;69.02
77693;SHT31;66984;47.404;18.836;2023-01-24T03:23:34;7.35;69.73
77693;SHT31;66984;47.404;18.836;2023-01-24T03:24:56;7.35;69.70
77693;SHT31;66984;47.404;18.836;2023-01-24T03:26:22;7.37;70.27
77693;SHT31;66984;47.404;18.836;2023-01-24T03:27:43;7.38;69.95
77693;SHT31;66984;47.404;18.836;2023-01-24T03:29:05;7.37;69.53
77693;SHT31;66984;47.404;18.836;2023-01-24T03:30:28;7.37;69.02
77693;SHT31;66984;47.404;18.836;2023-01-24T03:31:50;7.35;69.26
77693;SHT31;66984;47.404;18.836;2023-01-24T03:33:11;7.31;68.99
77693;SHT31;66984;47.404;18.836;2023-01-24T03:34:32;7.26;68.38
77693;SHT31;66984;47.404;18.836;2023-01-24T03:35:37;7.24;68.44
77693;SHT31;66984;47.404;18.836;2023-01-24T03:36:40;7.24;68.61
77693;SHT31;66984;47.404;18.836;2023-01-24T03:37:43;7.27;69.12
77693;SHT31;66984;47.404;18.836;2023-01-24T03:39:04;7.30;69.62
77693;SHT31;66984;47.404;18.836;2023-01-24T03:40:26;7.26;69.52
77693;SHT31;66984;47.404;18.836;2023-01-24T03:41:29;7.30;69.47
77693;SHT31;66984;47.404;18.836;2023-01-24T03:42:33;7.28;69.27
77693;SHT31;66984;47.404;18.836;2023-01-24T03:43:37;7.30;69.13
77693;SHT31;66984;47.404;18.836;2023-01-24T03:44:39;7.30;69.03
77693;SHT31;66984;47.404;18.836;2023-01-24T03:45:42;7.31;68.70
77693;SHT31;66984;47.404;18.836;2023-01-24T03:46:44;7.34;68.61
77693;SHT31;66984;47.404;18.836;2023-01-24T03:47:54;7.33;68.91
77693;SHT31;66984;47.404;18.836;2023-01-24T03:48:57;7.35;69.38
77693;SHT31;66984;47.404;18.836;2023-01-24T03:50:00;7.34;69.08
77693;SHT31;66984;47.404;18.836;2023-01-24T03:51:21;7.34;68.56
77693;SHT31;66984;47.404;18.836;2023-01-24T03:52:42;7.34;68.28
77693;SHT31;66984;47.404;18.836;2023-01-24T03:53:44;7.37;68.30
77693;SHT31;66984;47.404;18.836;2023-01-24T03:54:47;7.37;68.40
77693;SHT31;66984;47.404;18.836;2023-01-24T03:55:55;7.33;68.04
77693;SHT31;66984;47.404;18.836;2023-01-24T03:56:58;7.28;67.98
77693;SHT31;66984;47.404;18.836;2023-01-24T03:58:03;7.24;67.89
77693;SHT31;66984;47.404;18.836;2023-01-24T03:59:05;7.23;67.88
77693;SHT31;66984;47.404;18.836;2023-01-24T04:00:09;7.27;67.97
77693;SHT31;66984;47.404;18.836;2023-01-24T04:01:11;7.23;68.12
77693;SHT31;66984;47.404;18.836;2023-01-24T04:02:17;7.23;68.25
77693;SHT31;66984;47.404;18.836;2023-01-24T04:03:20;7.26;68.38
77693;SHT31;66984;47.404;18.836;2023-01-24T04:04:23;7.26;68.27
77693;SHT31;66984;47.404;18.836;2023-01-24T04:05:28;7.23;67.87
77693;SHT31;66984;47.404;18.836;2023-01-24T04:06:31;7.23;67.92
77693;SHT31;66984;47.404;18.836;2023-01-24T04:07:34;7.24;67.91
77693;SHT31;66984;47.404;18.836;2023-01-24T04:08:37;7.26;67.97
77693;SHT31;66984;47.404;18.836;2023-01-24T04:09:40;7.26;68.24
77693;SHT31;66984;47.404;18.836;2023-01-24T04:10:45;7.30;68.89
77693;SHT31;66984;47.404;18.836;2023-01-24T04:11:48;7.30;69.00
77693;SHT31;66984;47.404;18.836;2023-01-24T04:12:50;7.31;68.87
77693;SHT31;66984;47.404;18.836;2023-01-24T04:13:53;7.34;68.66
77693;SHT31;66984;47.404;18.836;2023-01-24T04:14:56;7.34;68.64
77693;SHT31;66984;47.404;18.836;2023-01-24T04:16:05;7.33;68.76
77693;SHT31;66984;47.404;18.836;2023-01-24T04:17:09;7.33;68.95
77693;SHT31;66984;47.404;18.836;2023-01-24T04:18:13;7.35;68.70
77693;SHT31;66984;47.404;18.836;2023-01-24T04:19:16;7.34;68.17
77693;SHT31;66984;47.404;18.836;2023-01-24T04:20:19;7.30;68.28
77693;SHT31;66984;47.404;18.836;2023-01-24T04:21:21;7.33;68.16
77693;SHT31;66984;47.404;18.836;2023-01-24T04:22:24;7.31;68.27
77693;SHT31;66984;47.404;18.836;2023-01-24T04:23:27;7.33;68.96
77693;SHT31;66984;47.404;18.836;2023-01-24T04:24:30;7.35;69.70
77693;SHT31;66984;47.404;18.836;2023-01-24T04:25:33;7.37;69.94
77693;SHT31;66984;47.404;18.836;2023-01-24T04:26:36;7.34;69.90
77693;SHT31;66984;47.404;18.836;2023-01-24T04:27:38;7.37;70.06
77693;SHT31;66984;47.404;18.836;2023-01-24T04:28:41;7.37;69.98
77693;SHT31;66984;47.404;18.836;2023-01-24T04:29:46;7.38;69.87
77693;SHT31;66984;47.404;18.836;2023-01-24T04:30:48;7.38;70.01
77693;SHT31;66984;47.404;18.836;2023-01-24T04:31:51;7.34;69.83
77693;SHT31;66984;47.404;18.836;2023-01-24T04:32:54;7.35;69.71
77693;SHT31;66984;47.404;18.836;2023-01-24T04:33:57;7.35;69.67
77693;SHT31;66984;47.404;18.836;2023-01-24T04:34:59;7.37;69.68
77693;SHT31;66984;47.404;18.836;2023-01-24T04:36:03;7.35;69.74
77693;SHT31;66984;47.404;18.836;2023-01-24T04:37:06;7.38;70.04
77693;SHT31;66984;47.404;18.836;2023-01-24T04:38:08;7.38;70.46
77693;SHT31;66984;47.404;18.836;2023-01-24T04:39:11;7.38;70.56
77693;SHT31;66984;47.404;18.836;2023-01-24T04:40:14;7.37;70.94
77693;SHT31;66984;47.404;18.836;2023-01-24T04:41:17;7.35;71.12
77693;SHT31;66984;47.404;18.836;2023-01-24T04:42:22;7.35;70.86
77693;SHT31;66984;47.404;18.836;2023-01-24T04:43:25;7.34;70.46
77693;SHT31;66984;47.404;18.836;2023-01-24T04:44:31;7.33;70.52
77693;SHT31;66984;47.404;18.836;2023-01-24T04:45:33;7.33;70.62
77693;SHT31;66984;47.404;18.836;2023-01-24T04:46:36;7.30;70.83
77693;SHT31;66984;47.404;18.836;2023-01-24T04:47:39;7.33;70.92
77693;SHT31;66984;47.404;18.836;2023-01-24T04:48:43;7.31;71.02
77693;SHT31;66984;47.404;18.836;2023-01-24T04:49:46;7.28;70.89
77693;SHT31;66984;47.404;18.836;2023-01-24T04:50:49;7.28;70.50
77693;SHT31;66984;47.404;18.836;2023-01-24T04:51:51;7.24;70.30
77693;SHT31;66984;47.404;18.836;2023-01-24T04:52:54;7.26;70.51
77693;SHT31;66984;47.404;18.836;2023-01-24T04:53:57;7.24;70.97
77693;SHT31;66984;47.404;18.836;2023-01-24T04:55:00;7.24;70.77
77693;SHT31;66984;47.404;18.836;2023-01-24T04:56:04;7.24;70.60
77693;SHT31;66984;47.404;18.836;2023-01-24T04:57:10;7.23;70.70
77693;SHT31;66984;47.404;18.836;2023-01-24T04:58:13;7.23;70.87
77693;SHT31;66984;47.404;18.836;2023-01-24T04:59:16;7.23;71.13
77693;SHT31;66984;47.404;18.836;2023-01-24T05:00:19;7.23;71.20
77693;SHT31;66984;47.404;18.836;2023-01-24T05:01:21;7.24;71.05
77693;SHT31;66984;47.404;18.836;2023-01-24T05:02:24;7.23;70.71
77693;SHT31;66984;47.404;18.836;2023-01-24T05:03:27;7.24;70.44
77693;SHT31;66984;47.404;18.836;2023-01-24T05:04:30;7.23;70.65
77693;SHT31;66984;47.404;18.836;2023-01-24T05:05:33;7.21;70.63
77693;SHT31;66984;47.404;18.836;2023-01-24T05:06:35;7.21;70.80
77693;SHT31;66984;47.404;18.836;2023-01-24T05:07:38;7.20;70.37
77693;SHT31;66984;47.404;18.836;2023-01-24T05:08:41;7.17;70.05
77693;SHT31;66984;47.404;18.836;2023-01-24T05:09:43;7.16;70.09
77693;SHT31;66984;47.404;18.836;2023-01-24T05:10:47;7.17;70.33
77693;SHT31;66984;47.404;18.836;2023-01-24T05:11:50;7.14;70.28
77693;SHT31;66984;47.404;18.836;2023-01-24T05:12:52;7.14;70.50
77693;SHT31;66984;47.404;18.836;2023-01-24T05:13:55;7.13;70.95
77693;SHT31;66984;47.404;18.836;2023-01-24T05:14:59;7.12;71.32
77693;SHT31;66984;47.404;18.836;2023-01-24T05:16:03;7.10;71.08
77693;SHT31;66984;47.404;18.836;2023-01-24T05:17:05;7.13;70.90
77693;SHT31;66984;47.404;18.836;2023-01-24T05:18:08;7.13;70.62
77693;SHT31;66984;47.404;18.836;2023-01-24T05:19:11;7.13;70.30
77693;SHT31;66984;47.404;18.836;2023-01-24T05:20:14;7.10;70.36
77693;SHT31;66984;47.404;18.836;2023-01-24T05:21:17;7.06;70.50
77693;SHT31;66984;47.404;18.836;2023-01-24T05:22:20;7.07;71.11
77693;SHT31;66984;47.404;18.836;2023-01-24T05:23:23;7.07;70.94
77693;SHT31;66984;47.404;18.836;2023-01-24T05:24:26;7.04;70.82
77693;SHT31;66984;47.404;18.836;2023-01-24T05:25:28;7.04;71.04
77693;SHT31;66984;47.404;18.836;2023-01-24T05:26:34;7.06;71.07
77693;SHT31;66984;47.404;18.836;2023-01-24T05:27:37;7.06;71.12
77693;SHT31;66984;47.404;18.836;2023-01-24T05:28:39;7.06;71.18
77693;SHT31;66984;47.404;18.836;2023-01-24T05:29:42;7.02;70.99
77693;SHT31;66984;47.404;18.836;2023-01-24T05:30:45;7.03;70.99
77693;SHT31;66984;47.404;18.836;2023-01-24T05:31:47;7.03;71.15
77693;SHT31;66984;47.404;18.836;2023-01-24T05:32:50;7.03;71.20
77693;SHT31;66984;47.404;18.836;2023-01-24T05:33:53;7.04;71.20
77693;SHT31;66984;47.404;18.836;2023-01-24T05:34:56;7.04;71.03
77693;SHT31;66984;47.404;18.836;2023-01-24T05:36:04;7.04;70.86
77693;SHT31;66984;47.404;18.836;2023-01-24T05:37:07;7.03;70.85
77693;SHT31;66984;47.404;18.836;2023-01-24T05:38:10;7.06;71.27
77693;SHT31;66984;47.404;18.836;2023-01-24T05:39:13;7.04;71.30
77693;SHT31;66984;47.404;18.836;2023-01-24T05:40:17;7.07;71.37
77693;SHT31;66984;47.404;18.836;2023-01-24T05:41:20;7.09;71.01
77693;SHT31;66984;47.404;18.836;2023-01-24T05:42:24;7.06;70.68
77693;SHT31;66984;47.404;18.836;2023-01-24T05:43:27;7.06;70.71
77693;SHT31;66984;47.404;18.836;2023-01-24T05:44:29;7.09;70.73
77693;SHT31;66984;47.404;18.836;2023-01-24T05:45:32;7.07;71.01
77693;SHT31;66984;47.404;18.836;2023-01-24T05:46:37;7.07;70.94
77693;SHT31;66984;47.404;18.836;2023-01-24T05:47:40;7.12;71.18
77693;SHT31;66984;47.404;18.836;2023-01-24T05:48:43;7.10;70.76
77693;SHT31;66984;47.404;18.836;2023-01-24T05:49:46;7.10;70.79
77693;SHT31;66984;47.404;18.836;2023-01-24T05:50:49;7.10;71.08
77693;SHT31;66984;47.404;18.836;2023-01-24T05:51:52;7.12;71.44
77693;SHT31;66984;47.404;18.836;2023-01-24T05:52:54;7.10;71.23
77693;SHT31;66984;47.404;18.836;2023-01-24T05:53:57;7.12;71.05
77693;SHT31;66984;47.404;18.836;2023-01-24T05:55:03;7.10;71.10
77693;SHT31;66984;47.404;18.836;2023-01-24T05:56:09;7.07;71.16
77693;SHT31;66984;47.404;18.836;2023-01-24T05:57:14;7.07;71.20
77693;SHT31;66984;47.404;18.836;2023-01-24T05:58:17;7.07;71.14
77693;SHT31;66984;47.404;18.836;2023-01-24T05:59:19;7.10;71.07
77693;SHT31;66984;47.404;18.836;2023-01-24T06:00:22;7.10;71.13
77693;SHT31;66984;47.404;18.836;2023-01-24T06:01:30;7.07;71.04
77693;SHT31;66984;47.404;18.836;2023-01-24T06:02:33;7.09;71.05
77693;SHT31;66984;47.404;18.836;2023-01-24T06:03:40;7.07;71.30
77693;SHT31;66984;47.404;18.836;2023-01-24T06:04:43;7.07;71.17
77693;SHT31;66984;47.404;18.836;2023-01-24T06:05:52;7.06;70.94
77693;SHT31;66984;47.404;18.836;2023-01-24T06:06:55;7.06;70.93
77693;SHT31;66984;47.404;18.836;2023-01-24T06:07:57;7.04;71.14
77693;SHT31;66984;47.404;18.836;2023-01-24T06:09:00;7.03;71.32
77693;SHT31;66984;47.404;18.836;2023-01-24T06:10:03;7.03;71.06
77693;SHT31;66984;47.404;18.836;2023-01-24T06:11:14;7.00;71.04
77693;SHT31;66984;47.404;18.836;2023-01-24T06:12:17;7.02;71.32
77693;SHT31;66984;47.404;18.836;2023-01-24T06:13:20;7.02;71.16
77693;SHT31;66984;47.404;18.836;2023-01-24T06:14:23;6.97;71.63
77693;SHT31;66984;47.404;18.836;2023-01-24T06:15:25;6.93;71.69
77693;SHT31;66984;47.404;18.836;2023-01-24T06:16:28;6.95;71.66
77693;SHT31;66984;47.404;18.836;2023-01-24T06:17:31;6.95;71.70
77693;SHT31;66984;47.404;18.836;2023-01-24T06:18:34;6.89;71.82
77693;SHT31;66984;47.404;18.836;2023-01-24T06:19:37;6.91;71.88
77693;SHT31;66984;47.404;18.836;2023-01-24T06:20:40;6.91;71.83
77693;SHT31;66984;47.404;18.836;2023-01-24T06:23:09;6.91;71.79
77693;SHT31;66984;47.404;18.836;2023-01-24T06:24:26;6.89;71.36
77693;SHT31;66984;47.404;18.836;2023-01-24T06:25:29;6.91;71.08
77693;SHT31;66984;47.404;18.836;2023-01-24T06:26:32;6.89;71.10
77693;SHT31;66984;47.404;18.836;2023-01-24T06:27:35;6.85;70.87
77693;SHT31;66984;47.404;18.836;2023-01-24T06:28:38;6.83;70.74
77693;SHT31;66984;47.404;18.836;2023-01-24T06:29:43;6.83;70.82
77693;SHT31;66984;47.404;18.836;2023-01-24T06:30:54;6.85;70.89
77693;SHT31;66984;47.404;18.836;2023-01-24T06:32:35;6.82;70.93
77693;SHT31;66984;47.404;18.836;2023-01-24T06:35:20;6.79;70.86
77693;SHT31;66984;47.404;18.836;2023-01-24T06:38:18;6.72;71.73
77693;SHT31;66984;47.404;18.836;2023-01-24T06:39:22;6.72;71.98
77693;SHT31;66984;47.404;18.836;2023-01-24T06:40:29;6.72;72.11
77693;SHT31;66984;47.404;18.836;2023-01-24T06:41:34;6.71;72.10
77693;SHT31;66984;47.404;18.836;2023-01-24T06:42:37;6.71;72.14
77693;SHT31;66984;47.404;18.836;2023-01-24T06:43:40;6.71;72.03
77693;SHT31;66984;47.404;18.836;2023-01-24T06:44:43;6.72;71.85
77693;SHT31;66984;47.404;18.836;2023-01-24T06:45:45;6.71;71.35
77693;SHT31;66984;47.404;18.836;2023-01-24T06:46:50;6.71;71.17
77693;SHT31;66984;47.404;18.836;2023-01-24T06:47:55;6.71;71.30
77693;SHT31;66984;47.404;18.836;2023-01-24T06:49:00;6.67;71.62
77693;SHT31;66984;47.404;18.836;2023-01-24T06:50:03;6.68;71.84
77693;SHT31;66984;47.404;18.836;2023-01-24T06:51:13;6.68;72.00
77693;SHT31;66984;47.404;18.836;2023-01-24T06:52:16;6.68;72.16
77693;SHT31;66984;47.404;18.836;2023-01-24T06:53:19;6.67;72.35
77693;SHT31;66984;47.404;18.836;2023-01-24T06:54:22;6.68;72.57
77693;SHT31;66984;47.404;18.836;2023-01-24T06:55:25;6.72;72.79
77693;SHT31;66984;47.404;18.836;2023-01-24T06:56:27;6.68;72.93
77693;SHT31;66984;47.404;18.836;2023-01-24T06:57:30;6.71;72.80
77693;SHT31;66984;47.404;18.836;2023-01-24T06:58:33;6.72;72.56
77693;SHT31;66984;47.404;18.836;2023-01-24T06:59:35;6.76;72.82
77693;SHT31;66984;47.404;18.836;2023-01-24T07:00:38;6.79;72.67
77693;SHT31;66984;47.404;18.836;2023-01-24T07:01:41;6.73;72.55
77693;SHT31;66984;47.404;18.836;2023-01-24T07:02:43;6.75;72.59
77693;SHT31;66984;47.404;18.836;2023-01-24T07:03:49;6.81;72.68
77693;SHT31;66984;47.404;18.836;2023-01-24T07:04:52;6.76;72.85